createdAt,value
2018-05-08T00:00:34.549Z,48.03
2018-05-08T00:01:34.539Z,48.13
2018-05-08T00:02:34.523Z,48.03
2018-05-08T00:03:34.512Z,48.13
2018-05-08T00:04:34.497Z,48.23
2018-05-08T00:05:34.486Z,48.03
2018-05-08T00:06:34.471Z,48.32
2018-05-08T00:07:34.462Z,48.42
2018-05-08T00:08:34.447Z,48.13
2018-05-08T00:09:34.433Z,48.03
2018-05-08T00:10:34.419Z,48.32
2018-05-08T00:11:34.411Z,48.32
2018-05-08T00:12:34.396Z,48.42
2018-05-08T00:13:34.382Z,48.23
2018-05-08T00:14:34.368Z,48.13
2018-05-08T00:15:34.353Z,48.13
2018-05-08T00:16:34.348Z,48.32
2018-05-08T00:17:34.348Z,48.42
2018-05-08T00:18:34.323Z,48.42
2018-05-08T00:19:34.306Z,48.23
2018-05-08T00:20:34.292Z,48.61
2018-05-08T00:21:34.281Z,48.32
2018-05-08T00:22:34.268Z,48.23
2018-05-08T00:23:34.259Z,48.32
2018-05-08T00:24:34.242Z,48.32
2018-05-08T00:25:34.231Z,48.52
2018-05-08T00:26:34.211Z,48.32
2018-05-08T00:27:34.204Z,48.23
2018-05-08T00:28:34.189Z,48.42
2018-05-08T00:29:34.177Z,48.42
2018-05-08T00:30:34.167Z,48.42
2018-05-08T00:31:34.157Z,48.42
2018-05-08T00:32:34.140Z,48.52
2018-05-08T00:33:34.127Z,48.42
2018-05-08T00:34:34.111Z,48.52
2018-05-08T00:35:34.098Z,48.52
2018-05-08T00:36:34.085Z,48.61
2018-05-08T00:37:34.072Z,48.42
2018-05-08T00:38:34.058Z,48.42
2018-05-08T00:39:34.049Z,48.61
2018-05-08T00:40:34.033Z,48.42
2018-05-08T00:41:34.021Z,48.61
2018-05-08T00:42:34.008Z,48.61
2018-05-08T00:43:33.995Z,48.52
2018-05-08T00:44:33.981Z,48.52
2018-05-08T00:45:33.974Z,48.71
2018-05-08T00:46:33.957Z,48.42
2018-05-08T00:47:33.943Z,48.52
2018-05-08T00:48:33.931Z,48.52
2018-05-08T00:49:33.914Z,48.52
2018-05-08T00:50:33.906Z,48.61
2018-05-08T00:51:33.892Z,48.61
2018-05-08T00:52:33.894Z,48.42
2018-05-08T00:53:33.867Z,48.52
2018-05-08T00:54:33.851Z,48.52
2018-05-08T00:55:33.839Z,48.52
2018-05-08T00:56:33.830Z,48.81
2018-05-08T00:57:33.813Z,48.52
2018-05-08T00:58:33.804Z,48.61
2018-05-08T00:59:33.788Z,48.32
2018-05-08T01:00:33.774Z,48.52
2018-05-08T01:01:33.763Z,48.52
2018-05-08T01:02:33.751Z,48.42
2018-05-08T01:03:33.734Z,48.42
2018-05-08T01:04:33.720Z,48.52
2018-05-08T01:05:33.712Z,48.52
2018-05-08T01:06:33.700Z,48.52
2018-05-08T01:07:33.684Z,48.42
2018-05-08T01:08:33.668Z,48.52
2018-05-08T01:09:33.657Z,48.52
2018-05-08T01:10:33.643Z,48.42
2018-05-08T01:11:33.702Z,48.52
2018-05-08T01:12:33.625Z,48.42
2018-05-08T01:13:33.609Z,48.42
2018-05-08T01:14:33.598Z,48.52
2018-05-08T01:15:33.578Z,48.42
2018-05-08T01:16:33.576Z,48.52
2018-05-08T01:17:33.551Z,48.42
2018-05-08T01:18:33.540Z,48.52
2018-05-08T01:19:33.531Z,48.52
2018-05-08T01:20:33.514Z,48.42
2018-05-08T01:21:33.502Z,48.42
2018-05-08T01:22:33.492Z,48.52
2018-05-08T01:23:33.479Z,48.71
2018-05-08T01:24:33.468Z,48.81
2018-05-08T01:25:33.451Z,49.49
2018-05-08T01:26:33.439Z,49.29
2018-05-08T01:27:33.422Z,49.19
2018-05-08T01:28:33.437Z,49.19
2018-05-08T01:29:33.399Z,49.10
2018-05-08T01:30:33.378Z,49.29
2018-05-08T01:31:33.417Z,49.19
2018-05-08T01:32:33.357Z,49.10
2018-05-08T01:33:33.343Z,49.19
2018-05-08T01:34:33.332Z,49.00
2018-05-08T01:35:33.315Z,49.10
2018-05-08T01:36:33.306Z,49.10
2018-05-08T01:37:33.305Z,49.00
2018-05-08T01:38:33.291Z,49.39
2018-05-08T01:39:33.301Z,49.10
2018-05-08T01:40:33.282Z,49.29
2018-05-08T01:41:33.230Z,49.19
2018-05-08T01:42:33.233Z,49.19
2018-05-08T01:43:33.226Z,49.10
2018-05-08T01:44:33.233Z,49.00
2018-05-08T01:45:33.223Z,49.10
2018-05-08T01:46:33.172Z,49.00
2018-05-08T01:47:33.160Z,49.10
2018-05-08T01:48:33.146Z,49.00
2018-05-08T01:49:33.134Z,48.90
2018-05-08T01:50:33.122Z,49.00
2018-05-08T01:51:33.108Z,49.00
2018-05-08T01:52:33.098Z,49.29
2018-05-08T01:53:33.083Z,49.19
2018-05-08T01:54:33.070Z,49.10
2018-05-08T01:55:33.063Z,49.29
2018-05-08T01:56:33.048Z,49.10
2018-05-08T01:57:33.031Z,49.19
2018-05-08T01:58:33.018Z,49.19
2018-05-08T01:59:32.998Z,49.10
2018-05-08T02:00:32.993Z,49.10
2018-05-08T02:01:32.979Z,49.00
2018-05-08T02:02:32.965Z,49.10
2018-05-08T02:03:32.950Z,49.19
2018-05-08T02:04:32.941Z,49.39
2018-05-08T02:05:32.930Z,49.19
2018-05-08T02:06:32.912Z,49.39
2018-05-08T02:07:32.898Z,49.00
2018-05-08T02:08:32.887Z,49.10
2018-05-08T02:09:32.874Z,49.58
2018-05-08T02:10:32.861Z,49.39
2018-05-08T02:11:32.847Z,48.61
2018-05-08T02:12:32.839Z,48.61
2018-05-08T02:13:32.823Z,49.10
2018-05-08T02:14:32.818Z,49.10
2018-05-08T02:15:32.795Z,49.39
2018-05-08T02:16:32.784Z,49.19
2018-05-08T02:17:32.767Z,49.39
2018-05-08T02:18:32.761Z,49.39
2018-05-08T02:19:32.743Z,49.19
2018-05-08T02:20:32.733Z,49.00
2018-05-08T02:21:32.715Z,49.00
2018-05-08T02:22:32.697Z,49.10
2018-05-08T02:23:32.688Z,49.00
2018-05-08T02:24:32.681Z,49.19
2018-05-08T02:25:32.663Z,49.00
2018-05-08T02:26:32.651Z,49.19
2018-05-08T02:27:32.635Z,49.29
2018-05-08T02:28:32.623Z,49.29
2018-05-08T02:29:32.617Z,49.39
2018-05-08T02:30:32.602Z,49.29
2018-05-08T02:31:32.588Z,49.39
2018-05-08T02:32:32.573Z,49.39
2018-05-08T02:33:32.560Z,49.39
2018-05-08T02:34:32.555Z,49.49
2018-05-08T02:35:32.530Z,49.58
2018-05-08T02:36:32.523Z,49.68
2018-05-08T02:37:32.511Z,49.68
2018-05-08T02:38:32.491Z,49.39
2018-05-08T02:39:32.477Z,49.49
2018-05-08T02:40:32.468Z,49.49
2018-05-08T02:41:32.462Z,49.49
2018-05-08T02:42:32.439Z,49.58
2018-05-08T02:43:32.443Z,49.68
2018-05-08T02:44:32.416Z,49.58
2018-05-08T02:45:32.403Z,49.49
2018-05-08T02:46:32.388Z,49.68
2018-05-08T02:47:32.379Z,49.58
2018-05-08T02:48:32.364Z,49.49
2018-05-08T02:49:32.347Z,49.37
2018-05-08T02:50:32.342Z,49.46
2018-05-08T02:51:32.321Z,49.49
2018-05-08T02:52:32.317Z,49.55
2018-05-08T02:53:32.302Z,49.58
2018-05-08T02:54:32.288Z,49.55
2018-05-08T02:55:32.272Z,49.68
2018-05-08T02:56:32.267Z,49.55
2018-05-08T02:57:32.248Z,49.46
2018-05-08T02:58:32.226Z,49.87
2018-05-08T02:59:32.216Z,49.75
2018-05-08T03:00:32.201Z,49.65
2018-05-08T03:01:32.192Z,49.87
2018-05-08T03:02:32.177Z,49.27
2018-05-08T03:03:32.166Z,49.85
2018-05-08T03:04:32.152Z,49.46
2018-05-08T03:05:32.139Z,49.75
2018-05-08T03:06:32.131Z,49.46
2018-05-08T03:07:32.116Z,49.55
2018-05-08T03:08:32.100Z,49.85
2018-05-08T03:09:32.089Z,50.04
2018-05-08T03:10:32.074Z,49.95
2018-05-08T03:11:32.064Z,49.65
2018-05-08T03:12:32.046Z,49.46
2018-05-08T03:13:32.037Z,49.65
2018-05-08T03:14:32.018Z,49.75
2018-05-08T03:15:32.004Z,49.55
2018-05-08T03:16:31.992Z,49.55
2018-05-08T03:17:31.987Z,49.85
2018-05-08T03:18:40.502Z,49.46
2018-05-08T03:20:24.856Z,49.17
2018-05-08T03:21:24.829Z,49.17
2018-05-08T03:23:17.683Z,49.27
2018-05-08T03:24:17.667Z,50.04
2018-05-08T03:26:17.674Z,49.55
2018-05-08T03:27:10.531Z,49.65
2018-05-08T03:29:03.390Z,49.46
2018-05-08T03:30:03.372Z,49.55
2018-05-08T03:31:56.240Z,49.85
2018-05-08T03:32:56.213Z,49.75
2018-05-08T03:34:49.074Z,49.65
2018-05-08T03:35:49.057Z,49.46
2018-05-08T03:37:41.927Z,49.55
2018-05-08T03:38:41.915Z,50.13
2018-05-08T03:40:34.770Z,49.55
2018-05-08T03:41:34.745Z,49.85
2018-05-08T03:43:27.622Z,49.85
2018-05-08T03:44:27.590Z,49.95
2018-05-08T03:46:20.450Z,49.85
2018-05-08T03:47:20.432Z,49.85
2018-05-08T03:49:20.430Z,49.85
2018-05-08T03:50:13.276Z,49.75
2018-05-08T03:52:13.269Z,49.85
2018-05-08T03:53:06.122Z,49.55
2018-05-08T03:55:06.481Z,49.65
2018-05-08T03:55:58.954Z,49.75
2018-05-08T03:56:58.944Z,49.55
2018-05-08T03:57:58.930Z,49.75
2018-05-08T03:58:58.915Z,49.55
2018-05-08T03:59:58.901Z,49.85
2018-05-08T04:00:58.896Z,49.95
2018-05-08T04:01:58.879Z,50.13
2018-05-08T04:02:58.863Z,50.04
2018-05-08T04:03:58.849Z,49.65
2018-05-08T04:04:58.837Z,50.13
2018-05-08T04:05:58.825Z,50.43
2018-05-08T04:06:58.816Z,50.43
2018-05-08T04:07:58.803Z,50.71
2018-05-08T04:08:58.781Z,50.52
2018-05-08T04:09:58.769Z,51.13
2018-05-08T04:10:58.763Z,50.93
2018-05-08T04:11:58.741Z,51.03
2018-05-08T04:12:58.729Z,50.93
2018-05-08T04:13:58.715Z,50.74
2018-05-08T04:14:58.787Z,50.65
2018-05-08T04:15:58.690Z,50.45
2018-05-08T04:16:58.674Z,50.74
2018-05-08T04:17:58.660Z,51.03
2018-05-08T04:18:58.648Z,50.16
2018-05-08T04:19:58.791Z,50.07
2018-05-08T04:20:58.649Z,50.35
2018-05-08T04:21:58.610Z,50.35
2018-05-08T04:22:58.597Z,50.74
2018-05-08T04:23:58.587Z,50.35
2018-05-08T04:24:58.572Z,50.55
2018-05-08T04:25:58.557Z,50.16
2018-05-08T04:26:58.552Z,50.55
2018-05-08T04:27:58.529Z,50.93
2018-05-08T04:28:58.517Z,50.93
2018-05-08T04:29:58.503Z,50.93
2018-05-08T04:30:58.488Z,51.03
2018-05-08T04:31:58.477Z,50.93
2018-05-08T04:32:58.462Z,50.93
2018-05-08T04:33:58.452Z,51.03
2018-05-08T04:34:58.435Z,50.55
2018-05-08T04:35:58.426Z,51.03
2018-05-08T04:36:58.418Z,51.03
2018-05-08T04:37:58.401Z,51.03
2018-05-08T04:38:58.383Z,51.01
2018-05-08T04:39:58.367Z,51.10
2018-05-08T04:40:58.360Z,50.93
2018-05-08T04:41:58.345Z,51.20
2018-05-08T04:42:58.328Z,51.01
2018-05-08T04:43:58.315Z,51.01
2018-05-08T04:44:58.303Z,50.84
2018-05-08T04:45:58.293Z,51.23
2018-05-08T04:46:58.279Z,51.03
2018-05-08T04:47:58.268Z,51.01
2018-05-08T04:48:58.254Z,51.13
2018-05-08T04:49:58.245Z,51.01
2018-05-08T04:50:58.226Z,51.10
2018-05-08T04:51:58.214Z,51.20
2018-05-08T04:52:58.196Z,51.10
2018-05-08T04:53:58.184Z,50.91
2018-05-08T04:54:58.172Z,50.81
2018-05-08T04:55:58.260Z,51.01
2018-05-08T04:56:58.152Z,50.81
2018-05-08T04:57:58.131Z,51.01
2018-05-08T04:58:58.117Z,51.01
2018-05-08T04:59:58.105Z,50.81
2018-05-08T05:00:58.097Z,50.91
2018-05-08T05:01:58.076Z,51.01
2018-05-08T05:02:58.065Z,51.10
2018-05-08T05:03:58.049Z,50.91
2018-05-08T05:06:36.766Z,50.91
2018-05-08T05:07:29.606Z,50.91
2018-05-08T05:09:22.475Z,51.20
2018-05-08T05:10:22.445Z,50.91
2018-05-08T05:12:22.438Z,50.91
2018-05-08T05:13:15.288Z,50.91
2018-05-08T05:15:15.535Z,51.10
2018-05-08T05:16:08.130Z,51.10
2018-05-08T05:18:08.128Z,50.91
2018-05-08T05:19:00.971Z,50.71
2018-05-08T05:21:00.982Z,51.20
2018-05-08T05:21:53.819Z,51.01
2018-05-08T05:23:46.691Z,51.39
2018-05-08T05:24:46.677Z,51.01
2018-05-08T05:26:46.662Z,51.01
2018-05-08T05:27:39.515Z,51.01
2018-05-08T05:29:39.513Z,51.20
2018-05-08T05:30:32.362Z,51.20
2018-05-08T05:32:32.383Z,51.10
2018-05-08T05:33:25.205Z,51.10
2018-05-08T05:35:18.079Z,51.01
2018-05-08T05:36:18.059Z,50.91
2018-05-08T05:38:18.073Z,51.01
2018-05-08T05:39:10.907Z,51.20
2018-05-08T05:41:10.919Z,50.91
2018-05-08T05:42:03.756Z,50.71
2018-05-08T05:44:03.751Z,50.81
2018-05-08T05:44:56.596Z,51.01
2018-05-08T05:46:49.465Z,51.20
2018-05-08T05:47:49.446Z,51.01
2018-05-08T05:49:49.690Z,50.84
2018-05-08T05:50:42.286Z,49.99
2018-05-08T05:52:42.296Z,49.34
2018-05-08T05:53:35.137Z,48.08
2018-05-08T05:55:35.154Z,47.91
2018-05-08T05:56:27.985Z,47.72
2018-05-08T05:58:20.846Z,48.08
2018-05-08T05:59:20.828Z,48.47
2018-05-08T06:01:20.830Z,49.51
2018-05-08T06:02:13.676Z,49.22
2018-05-08T06:04:13.677Z,48.93
2018-05-08T06:05:06.527Z,49.22
2018-05-08T06:07:06.542Z,49.49
2018-05-08T06:07:59.380Z,49.41
2018-05-08T06:09:52.241Z,49.58
2018-05-08T06:10:52.223Z,49.99
2018-05-08T06:12:52.245Z,49.58
2018-05-08T06:13:45.080Z,49.77
2018-05-08T06:15:45.093Z,49.68
2018-05-08T06:16:37.928Z,49.58
2018-05-08T06:18:37.942Z,49.49
2018-05-08T06:19:30.772Z,50.07
2018-05-08T06:21:30.760Z,49.97
2018-05-08T06:22:23.609Z,49.77
2018-05-08T06:24:16.492Z,49.87
2018-05-08T06:25:16.465Z,50.07
2018-05-08T06:27:16.444Z,49.68
2018-05-08T06:28:09.300Z,49.87
2018-05-08T06:30:09.312Z,49.58
2018-05-08T06:31:02.147Z,49.58
2018-05-08T06:33:02.144Z,49.87
2018-05-08T06:33:54.990Z,49.49
2018-05-08T06:35:47.863Z,49.58
2018-05-08T06:36:47.835Z,49.87
2018-05-08T06:38:47.827Z,49.58
2018-05-08T06:39:40.685Z,49.49
2018-05-08T06:41:40.715Z,49.49
2018-05-08T06:42:33.540Z,49.58
2018-05-08T06:44:33.545Z,49.77
2018-05-08T06:45:26.379Z,49.87
2018-05-08T06:47:19.252Z,49.97
2018-05-08T06:48:19.230Z,50.16
2018-05-08T06:50:19.237Z,49.87
2018-05-08T06:51:12.072Z,49.87
2018-05-08T06:53:12.080Z,50.07
2018-05-08T06:54:04.927Z,49.97
2018-05-08T06:56:04.923Z,49.97
2018-05-08T06:56:57.771Z,49.87
2018-05-08T06:58:50.648Z,49.97
2018-05-08T06:59:50.618Z,50.16
2018-05-08T07:01:50.621Z,50.07
2018-05-08T07:02:43.464Z,50.16
2018-05-08T07:04:43.478Z,49.97
2018-05-08T07:05:36.313Z,50.07
2018-05-08T07:07:36.303Z,49.97
2018-05-08T07:08:29.155Z,50.35
2018-05-08T07:10:22.024Z,50.07
2018-05-08T07:11:21.999Z,50.16
2018-05-08T07:13:21.997Z,49.77
2018-05-08T07:14:14.848Z,49.97
2018-05-08T07:16:14.994Z,50.26
2018-05-08T07:17:07.691Z,50.26
2018-05-08T07:18:07.673Z,50.62
2018-05-08T07:19:07.660Z,50.45
2018-05-08T07:20:07.646Z,50.45
2018-05-08T07:21:07.632Z,50.26
2018-05-08T07:22:07.618Z,50.45
2018-05-08T07:23:07.603Z,50.16
2018-05-08T07:24:07.689Z,50.52
2018-05-08T07:25:07.581Z,50.35
2018-05-08T07:26:07.569Z,50.35
2018-05-08T07:27:07.551Z,50.35
2018-05-08T07:28:07.537Z,50.43
2018-05-08T07:29:07.526Z,50.43
2018-05-08T07:30:07.571Z,50.35
2018-05-08T07:31:07.497Z,50.45
2018-05-08T07:32:07.491Z,50.33
2018-05-08T07:33:07.473Z,50.26
2018-05-08T07:34:07.457Z,50.45
2018-05-08T07:35:07.442Z,50.35
2018-05-08T07:36:07.432Z,50.35
2018-05-08T07:37:07.421Z,50.45
2018-05-08T07:38:07.431Z,50.45
2018-05-08T07:39:07.393Z,50.35
2018-05-08T07:40:07.377Z,50.45
2018-05-08T07:41:07.364Z,50.55
2018-05-08T07:42:07.350Z,50.55
2018-05-08T07:43:07.336Z,50.55
2018-05-08T07:44:07.324Z,50.35
2018-05-08T07:45:07.311Z,50.35
2018-05-08T07:46:07.296Z,50.26
2018-05-08T07:47:07.284Z,50.35
2018-05-08T07:48:07.269Z,50.45
2018-05-08T07:49:07.261Z,50.16
2018-05-08T07:50:07.243Z,50.26
2018-05-08T07:51:07.229Z,49.87
2018-05-08T07:52:07.215Z,50.16
2018-05-08T07:53:07.205Z,50.07
2018-05-08T07:54:07.191Z,49.87
2018-05-08T07:55:07.177Z,50.07
2018-05-08T07:56:07.162Z,50.07
2018-05-08T07:57:07.151Z,50.07
2018-05-08T07:58:07.137Z,50.07
2018-05-08T07:59:07.123Z,50.07
2018-05-08T08:00:07.109Z,50.16
2018-05-08T08:01:07.106Z,50.07
2018-05-08T08:02:07.084Z,49.87
2018-05-08T08:03:07.068Z,50.07
2018-05-08T08:04:07.095Z,49.97
2018-05-08T08:05:07.043Z,50.07
2018-05-08T08:06:07.034Z,50.07
2018-05-08T08:07:07.016Z,49.87
2018-05-08T08:08:07.004Z,49.97
2018-05-08T08:09:06.991Z,50.07
2018-05-08T08:10:06.981Z,49.87
2018-05-08T08:11:06.963Z,49.87
2018-05-08T08:12:06.952Z,49.87
2018-05-08T08:13:06.936Z,49.87
2018-05-08T08:14:06.924Z,50.07
2018-05-08T08:15:06.908Z,50.07
2018-05-08T08:16:06.901Z,50.07
2018-05-08T08:17:06.883Z,50.07
2018-05-08T08:18:06.869Z,49.97
2018-05-08T08:19:06.857Z,50.07
2018-05-08T08:20:06.844Z,49.87
2018-05-08T08:21:06.834Z,49.77
2018-05-08T08:22:06.818Z,49.97
2018-05-08T08:23:06.808Z,49.90
2018-05-08T08:24:06.789Z,50.07
2018-05-08T08:25:06.784Z,49.97
2018-05-08T08:26:06.766Z,50.07
2018-05-08T08:27:06.751Z,49.87
2018-05-08T08:28:06.740Z,49.99
2018-05-08T08:29:06.724Z,50.09
2018-05-08T08:30:06.714Z,49.99
2018-05-08T08:31:06.698Z,49.80
2018-05-08T08:32:06.686Z,49.97
2018-05-08T08:33:06.673Z,49.77
2018-05-08T08:34:06.660Z,49.99
2018-05-08T08:35:06.645Z,50.07
2018-05-08T08:36:06.634Z,50.28
2018-05-08T08:37:06.620Z,50.38
2018-05-08T08:38:06.606Z,50.38
2018-05-08T08:39:06.594Z,50.48
2018-05-08T08:40:06.579Z,50.28
2018-05-08T08:41:06.569Z,50.38
2018-05-08T08:42:06.554Z,50.38
2018-05-08T08:43:06.538Z,50.38
2018-05-08T08:44:06.531Z,50.48
2018-05-08T08:45:06.514Z,50.48
2018-05-08T08:46:06.501Z,50.48
2018-05-08T08:47:06.490Z,50.67
2018-05-08T08:48:06.477Z,50.57
2018-05-08T08:49:06.463Z,50.38
2018-05-08T08:50:06.452Z,50.57
2018-05-08T08:51:06.435Z,50.48
2018-05-08T08:52:06.421Z,50.38
2018-05-08T08:53:06.409Z,50.38
2018-05-08T08:54:06.398Z,50.38
2018-05-08T08:55:06.384Z,50.28
2018-05-08T08:56:06.422Z,50.38
2018-05-08T08:57:06.362Z,50.50
2018-05-08T08:58:06.343Z,50.57
2018-05-08T08:59:06.332Z,50.38
2018-05-08T09:00:06.316Z,50.57
2018-05-08T09:01:06.303Z,50.48
2018-05-08T09:02:06.292Z,50.50
2018-05-08T09:03:06.278Z,50.50
2018-05-08T09:04:06.335Z,50.50
2018-05-08T09:05:06.254Z,50.50
2018-05-08T09:06:06.243Z,50.40
2018-05-08T09:07:06.229Z,50.31
2018-05-08T09:08:06.213Z,50.40
2018-05-08T09:09:06.200Z,50.40
2018-05-08T09:10:06.191Z,50.50
2018-05-08T09:11:06.178Z,50.50
2018-05-08T09:12:06.177Z,50.40
2018-05-08T09:13:06.150Z,50.50
2018-05-08T09:14:06.137Z,50.31
2018-05-08T09:15:06.126Z,50.50
2018-05-08T09:16:06.111Z,50.79
2018-05-08T09:17:06.097Z,50.79
2018-05-08T09:18:06.084Z,50.60
2018-05-08T09:19:06.072Z,50.40
2018-05-08T09:20:06.062Z,50.70
2018-05-08T09:21:06.051Z,50.79
2018-05-08T09:22:06.033Z,50.79
2018-05-08T09:23:06.019Z,50.89
2018-05-08T09:24:06.007Z,50.89
2018-05-08T09:25:05.995Z,50.89
2018-05-08T09:26:05.982Z,50.79
2018-05-08T09:27:05.967Z,50.79
2018-05-08T09:28:05.954Z,50.89
2018-05-08T09:29:05.946Z,50.98
2018-05-08T09:30:05.929Z,50.89
2018-05-08T09:31:05.916Z,50.98
2018-05-08T09:32:05.902Z,50.89
2018-05-08T09:33:05.890Z,50.98
2018-05-08T09:34:05.878Z,50.89
2018-05-08T09:35:05.865Z,50.89
2018-05-08T09:36:05.853Z,50.98
2018-05-08T09:37:05.843Z,51.08
2018-05-08T09:38:05.831Z,50.98
2018-05-08T09:42:16.100Z,51.18
2018-05-08T09:43:16.086Z,50.98
2018-05-08T09:45:16.087Z,50.98
2018-05-08T09:46:08.931Z,51.28
2018-05-08T09:48:08.961Z,50.89
2018-05-08T09:49:01.807Z,50.98
2018-05-08T09:51:01.788Z,50.98
2018-05-08T09:51:54.689Z,51.28
2018-05-08T09:53:47.502Z,51.18
2018-05-08T09:54:47.478Z,50.98
2018-05-08T09:56:47.479Z,51.08
2018-05-08T09:57:40.321Z,50.89
2018-05-08T09:59:40.328Z,50.98
2018-05-08T10:00:33.167Z,51.56
2018-05-08T10:02:33.176Z,51.47
2018-05-08T10:03:26.032Z,51.56
2018-05-08T10:05:18.900Z,51.66
2018-05-08T10:06:18.874Z,51.66
2018-05-08T10:08:18.870Z,51.30
2018-05-08T10:09:11.719Z,51.28
2018-05-08T10:11:11.730Z,51.66
2018-05-08T10:12:04.569Z,51.66
2018-05-08T10:14:04.560Z,51.66
2018-05-08T10:14:57.421Z,51.68
2018-05-08T10:16:50.292Z,51.66
2018-05-08T10:17:50.265Z,51.56
2018-05-08T10:19:50.274Z,51.28
2018-05-08T10:20:43.195Z,51.59
2018-05-08T10:22:43.103Z,51.40
2018-05-08T10:23:35.966Z,51.37
2018-05-08T10:25:35.989Z,51.47
2018-05-08T10:26:28.821Z,51.37
2018-05-08T10:27:28.807Z,51.66
2018-05-08T10:28:28.794Z,51.76
2018-05-08T10:29:28.784Z,51.76
2018-05-08T10:30:28.767Z,51.76
2018-05-08T10:31:28.756Z,51.78
2018-05-08T10:32:28.742Z,51.59
2018-05-08T10:33:28.731Z,51.76
2018-05-08T10:34:28.716Z,51.88
2018-05-08T10:35:28.702Z,51.98
2018-05-08T10:36:28.689Z,51.88
2018-05-08T10:37:28.681Z,51.95
2018-05-08T10:38:28.665Z,51.95
2018-05-08T10:39:28.652Z,51.86
2018-05-08T10:40:28.639Z,51.95
2018-05-08T10:41:28.627Z,51.86
2018-05-08T10:42:28.614Z,51.86
2018-05-08T10:43:28.600Z,51.76
2018-05-08T10:44:28.588Z,51.86
2018-05-08T10:45:28.576Z,52.05
2018-05-08T10:46:28.565Z,51.88
2018-05-08T10:47:28.549Z,52.08
2018-05-08T10:48:28.538Z,52.08
2018-05-08T10:49:28.526Z,51.98
2018-05-08T10:50:28.515Z,52.05
2018-05-08T10:51:28.498Z,51.98
2018-05-08T10:52:28.485Z,51.95
2018-05-08T10:53:28.474Z,51.86
2018-05-08T10:54:28.461Z,52.05
2018-05-08T10:55:28.447Z,52.05
2018-05-08T10:56:28.438Z,52.05
2018-05-08T10:57:28.423Z,52.05
2018-05-08T10:58:28.414Z,51.95
2018-05-08T10:59:28.399Z,52.05
2018-05-08T11:00:28.384Z,51.95
2018-05-08T11:01:28.370Z,51.95
2018-05-08T11:02:28.361Z,52.14
2018-05-08T11:03:28.345Z,52.24
2018-05-08T11:04:28.335Z,52.14
2018-05-08T11:05:28.320Z,52.05
2018-05-08T11:06:28.308Z,52.14
2018-05-08T11:07:28.297Z,52.14
2018-05-08T11:08:28.283Z,52.05
2018-05-08T11:09:28.273Z,52.14
2018-05-08T11:10:28.257Z,51.95
2018-05-08T11:11:28.246Z,51.95
2018-05-08T11:12:28.297Z,52.14
2018-05-08T11:13:28.297Z,52.63
2018-05-08T11:14:28.205Z,52.82
2018-05-08T11:15:28.192Z,52.44
2018-05-08T11:16:28.184Z,52.53
2018-05-08T11:17:28.168Z,52.53
2018-05-08T11:18:28.250Z,52.53
2018-05-08T11:19:28.144Z,52.34
2018-05-08T11:20:28.129Z,52.44
2018-05-08T11:21:28.120Z,52.73
2018-05-08T11:22:28.104Z,52.44
2018-05-08T11:23:28.093Z,52.34
2018-05-08T11:24:28.080Z,52.63
2018-05-08T11:25:28.066Z,52.63
2018-05-08T11:26:28.111Z,52.82
2018-05-08T11:27:28.040Z,52.73
2018-05-08T11:28:28.032Z,52.63
2018-05-08T11:29:28.016Z,52.63
2018-05-08T11:30:28.002Z,52.73
2018-05-08T11:31:27.992Z,52.53
2018-05-08T11:32:27.978Z,52.73
2018-05-08T11:33:27.967Z,52.14
2018-05-08T11:34:27.954Z,52.63
2018-05-08T11:35:27.943Z,52.44
2018-05-08T11:36:27.928Z,52.53
2018-05-08T11:37:27.914Z,52.53
2018-05-08T11:38:27.904Z,52.63
2018-05-08T11:39:27.889Z,52.63
2018-05-08T11:40:27.875Z,52.82
2018-05-08T11:41:27.863Z,52.53
2018-05-08T11:42:27.852Z,52.44
2018-05-08T11:43:27.838Z,52.82
2018-05-08T11:44:27.827Z,52.63
2018-05-08T11:45:27.811Z,52.44
2018-05-08T11:46:27.802Z,52.82
2018-05-08T11:47:27.787Z,52.73
2018-05-08T11:48:27.782Z,52.34
2018-05-08T11:49:27.766Z,52.34
2018-05-08T11:50:27.748Z,52.24
2018-05-08T11:51:27.736Z,52.14
2018-05-08T11:52:27.727Z,52.53
2018-05-08T11:53:27.711Z,52.73
2018-05-08T11:54:27.699Z,52.53
2018-05-08T11:55:27.685Z,52.44
2018-05-08T11:56:27.673Z,52.44
2018-05-08T11:57:27.662Z,52.44
2018-05-08T11:58:27.651Z,52.44
2018-05-08T11:59:27.634Z,52.53
2018-05-08T12:00:27.624Z,52.44
2018-05-08T12:01:27.609Z,52.44
2018-05-08T12:02:27.598Z,52.73
2018-05-08T12:03:27.583Z,52.53
2018-05-08T12:04:27.643Z,52.53
2018-05-08T12:05:27.557Z,52.34
2018-05-08T12:06:27.552Z,52.82
2018-05-08T12:07:27.532Z,52.73
2018-05-08T12:08:27.518Z,52.53
2018-05-08T12:09:27.509Z,52.44
2018-05-08T12:10:27.495Z,52.44
2018-05-08T12:11:27.485Z,52.24
2018-05-08T12:12:27.471Z,52.63
2018-05-08T12:13:27.458Z,52.63
2018-05-08T12:14:27.447Z,52.82
2018-05-08T12:15:27.430Z,52.73
2018-05-08T12:16:27.417Z,52.63
2018-05-08T12:17:27.406Z,52.63
2018-05-08T12:18:27.398Z,52.34
2018-05-08T12:19:27.383Z,52.14
2018-05-08T12:20:27.370Z,52.34
2018-05-08T12:21:27.356Z,52.34
2018-05-08T12:22:27.343Z,52.14
2018-05-08T12:23:27.331Z,52.24
2018-05-08T12:24:27.316Z,52.44
2018-05-08T12:25:27.307Z,52.53
2018-05-08T12:26:27.293Z,52.44
2018-05-08T12:27:27.276Z,52.34
2018-05-08T12:28:27.267Z,52.44
2018-05-08T12:29:27.253Z,52.53
2018-05-08T12:30:27.239Z,52.05
2018-05-08T12:31:27.230Z,52.24
2018-05-08T12:32:27.218Z,51.95
2018-05-08T12:33:27.202Z,52.05
2018-05-08T12:34:27.192Z,52.53
2018-05-08T12:35:27.180Z,52.34
2018-05-08T12:36:27.164Z,52.24
2018-05-08T12:37:27.154Z,51.95
2018-05-08T12:38:27.139Z,51.76
2018-05-08T12:39:27.126Z,51.86
2018-05-08T12:40:27.113Z,51.76
2018-05-08T12:41:27.099Z,51.95
2018-05-08T12:42:27.089Z,52.05
2018-05-08T12:43:27.074Z,52.24
2018-05-08T12:44:27.061Z,52.24
2018-05-08T12:45:27.050Z,52.05
2018-05-08T12:46:27.036Z,51.95
2018-05-08T12:47:27.021Z,51.95
2018-05-08T12:48:27.011Z,51.95
2018-05-08T12:49:26.996Z,52.05
2018-05-08T12:50:27.008Z,51.86
2018-05-08T12:51:26.972Z,52.24
2018-05-08T12:52:26.959Z,51.95
2018-05-08T12:53:26.948Z,52.05
2018-05-08T12:54:26.933Z,51.95
2018-05-08T12:55:26.925Z,52.05
2018-05-08T12:56:26.913Z,52.05
2018-05-08T12:57:26.894Z,52.05
2018-05-08T12:58:26.887Z,52.05
2018-05-08T12:59:26.872Z,52.05
2018-05-08T13:00:26.853Z,51.76
2018-05-08T13:01:26.850Z,51.76
2018-05-08T13:02:26.833Z,51.95
2018-05-08T13:03:26.820Z,51.95
2018-05-08T13:04:26.804Z,51.76
2018-05-08T13:05:26.824Z,51.86
2018-05-08T13:06:26.807Z,51.86
2018-05-08T13:07:26.766Z,51.95
2018-05-08T13:08:26.763Z,51.76
2018-05-08T13:09:26.740Z,51.86
2018-05-08T13:10:26.730Z,51.76
2018-05-08T13:11:26.715Z,51.86
2018-05-08T13:12:26.711Z,51.86
2018-05-08T13:13:26.692Z,51.86
2018-05-08T13:14:26.678Z,51.86
2018-05-08T13:15:26.663Z,51.66
2018-05-08T13:16:26.651Z,52.05
2018-05-08T13:17:26.639Z,51.86
2018-05-08T13:18:26.625Z,52.05
2018-05-08T13:19:26.612Z,52.05
2018-05-08T13:20:26.603Z,52.05
2018-05-08T13:21:26.586Z,52.14
2018-05-08T13:22:26.575Z,52.14
2018-05-08T13:23:26.560Z,51.86
2018-05-08T13:24:26.548Z,52.05
2018-05-08T13:25:26.536Z,52.05
2018-05-08T13:26:26.525Z,51.86
2018-05-08T13:27:26.510Z,52.14
2018-05-08T13:28:26.499Z,52.05
2018-05-08T13:29:26.487Z,52.05
2018-05-08T13:30:26.475Z,51.86
2018-05-08T13:31:26.460Z,51.86
2018-05-08T13:32:26.483Z,52.14
2018-05-08T13:33:26.435Z,51.76
2018-05-08T13:34:26.423Z,51.76
2018-05-08T13:35:26.411Z,51.95
2018-05-08T13:36:26.395Z,51.76
2018-05-08T13:37:26.383Z,51.86
2018-05-08T13:38:26.370Z,52.05
2018-05-08T13:39:26.356Z,52.05
2018-05-08T13:40:26.347Z,51.86
2018-05-08T13:41:26.333Z,51.76
2018-05-08T13:42:26.319Z,51.86
2018-05-08T13:43:26.305Z,51.95
2018-05-08T13:44:26.294Z,52.05
2018-05-08T13:45:26.280Z,52.05
2018-05-08T13:46:26.268Z,51.86
2018-05-08T13:47:26.258Z,52.05
2018-05-08T13:48:26.246Z,51.86
2018-05-08T13:49:26.229Z,51.95
2018-05-08T13:50:26.221Z,51.95
2018-05-08T13:51:26.202Z,51.76
2018-05-08T13:52:26.191Z,52.05
2018-05-08T13:53:26.179Z,52.05
2018-05-08T13:54:26.164Z,52.05
2018-05-08T13:55:26.155Z,52.05
2018-05-08T13:56:26.137Z,51.95
2018-05-08T13:57:26.131Z,51.76
2018-05-08T13:58:26.115Z,51.95
2018-05-08T13:59:26.104Z,51.95
2018-05-08T14:00:26.089Z,51.95
2018-05-08T14:01:26.074Z,51.95